Main page
METAR-TAF:

METAR-TAF

Airports :

Rotterdam The Hague Airport

Rotterdam, Netherlands

latitude: 51-57N, longitude: 004-27E, elevation: -5 m

Current weather observation

The report was made 29 minutes ago, at 22:55 UTC
Wind 11 kt from the East, varying between East/Northeast and East/Southeast
Temperature 16°C
Humidity 36%
Pressure 1003 hPa
Visibility 10 km or more

METAR: EHRD 222255Z AUTO 09011KT 060V120 9999 NSC 16/01 Q1003 NOSIG

Time: 01:24 (23:24 UTC)

Forecast

The report was made 6 hours and 17 minutes ago, at 17:07 UTC
Forecast valid from 22 at 18 UTC to 23 at 24 UTC
Wind 13 kt from the East
Visibility 10 km or more
no clouds below 1500 m and no cumulonimbus
Temporary
from 23 at 10 UTC to 23 at 17 UTC
Wind 15 kt from the East/Southeast with gusts up to 25 kt
Becoming
from 23 at 17 UTC to 23 at 20 UTC
Wind 10 kt from the East/Northeast

TAF: EHRD 221707Z 2218/2324 10013KT CAVOK TEMPO 2310/2317 11015G25KT BECMG 2317/2320 07010KT

Weather observations and forecasts of more than 4000 airports (METAR and TAF reports).

The available stations are represented by yellow and red dots on the map.

Hover mouse over dot to see the name of the station.

Then click to see weather observations and forecasts.

To change the map : click on the green buttons with a black cross to zoom in, on the green button with a dash to zoom out, or on the green arrows for adjacent maps.


METAR-TAF: